createdAt,value
2019-02-26T00:00:44.871Z,29.20
2019-02-26T00:03:11.194Z,29.40
2019-02-26T00:05:40.215Z,27.70
2019-02-26T00:08:14.550Z,28.07
2019-02-26T00:10:56.706Z,28.53
2019-02-26T00:16:17.698Z,28.97
2019-02-26T00:19:02.614Z,27.63
2019-02-26T00:21:31.108Z,28.07
2019-02-26T00:24:30.312Z,28.10
2019-02-26T00:27:07.629Z,28.63
2019-02-26T00:29:50.931Z,28.50
2019-02-26T00:32:43.341Z,28.13
2019-02-26T00:35:25.744Z,27.63
2019-02-26T00:38:01.439Z,28.20
2019-02-26T00:40:32.661Z,27.67
2019-02-26T00:43:04.763Z,28.23
2019-02-26T00:45:51.072Z,28.60
2019-02-26T00:48:21.470Z,27.43
2019-02-26T00:50:52.233Z,28.70
2019-02-26T00:53:23.516Z,27.53
2019-02-26T00:56:19.561Z,27.50
2019-02-26T00:58:51.350Z,28.37
2019-02-26T01:01:23.891Z,28.67
2019-02-26T01:03:52.974Z,29.10
2019-02-26T01:06:22.548Z,28.23
2019-02-26T01:08:55.916Z,29.10
2019-02-26T01:11:25.926Z,28.67
2019-02-26T01:13:57.265Z,29.03
2019-02-26T01:16:32.808Z,29.63
2019-02-26T01:19:01.706Z,28.53
2019-02-26T01:21:34.113Z,28.80
2019-02-26T01:24:06.387Z,28.57
2019-02-26T01:26:35.319Z,29.57
2019-02-26T01:29:18.975Z,30.43
2019-02-26T01:31:43.478Z,29.63
2019-02-26T01:34:14.077Z,28.90
2019-02-26T01:36:44.858Z,29.27
2019-02-26T01:39:23.275Z,30.57
2019-02-26T01:41:54.083Z,30.73
2019-02-26T01:44:30.147Z,30.67
2019-02-26T01:47:00.864Z,30.20
2019-02-26T01:49:32.631Z,29.53
2019-02-26T01:52:08.416Z,29.90
2019-02-26T01:54:39.593Z,30.00
2019-02-26T01:57:13.083Z,31.20
2019-02-26T01:59:42.142Z,30.23
2019-02-26T02:02:17.313Z,29.60
2019-02-26T02:04:44.605Z,30.67
2019-02-26T02:07:13.720Z,33.57
2019-02-26T02:09:46.551Z,31.23
2019-02-26T02:12:15.161Z,33.17
2019-02-26T02:14:49.993Z,31.47
2019-02-26T02:17:21.462Z,32.30
2019-02-26T02:19:50.355Z,32.53
2019-02-26T02:22:24.547Z,31.97
2019-02-26T02:24:55.579Z,31.37
2019-02-26T02:27:35.961Z,31.40
2019-02-26T02:30:17.875Z,31.20
2019-02-26T02:35:29.251Z,31.83
2019-02-26T02:38:19.697Z,29.70
2019-02-26T02:40:59.799Z,32.20
2019-02-26T02:43:34.653Z,31.00
2019-02-26T02:46:09.858Z,32.30
2019-02-26T02:48:50.519Z,30.63
2019-02-26T02:51:34.731Z,30.73
2019-02-26T02:54:26.468Z,30.83
2019-02-26T02:57:07.583Z,31.63
2019-02-26T02:59:49.668Z,30.47
2019-02-26T03:02:30.100Z,30.67
2019-02-26T03:05:11.681Z,30.57
2019-02-26T03:07:44.924Z,30.73
2019-02-26T03:10:33.506Z,31.87
2019-02-26T03:19:14.414Z,31.40
2019-02-26T03:21:58.640Z,29.97
2019-02-26T03:24:30.643Z,29.83
2019-02-26T03:27:15.116Z,31.80
2019-02-26T03:29:52.407Z,32.00
2019-02-26T03:32:21.713Z,30.97
2019-02-26T03:35:07.050Z,30.40
2019-02-26T03:37:55.572Z,30.30
2019-02-26T03:40:33.114Z,29.67
2019-02-26T03:43:15.613Z,29.63
2019-02-26T03:46:01.867Z,28.63
2019-02-26T03:48:30.740Z,31.20
2019-02-26T03:51:12.144Z,29.73
2019-02-26T03:53:34.348Z,29.60
2019-02-26T03:56:39.467Z,29.47
2019-02-26T03:59:30.977Z,29.03
2019-02-26T04:02:02.170Z,28.40
2019-02-26T04:04:33.632Z,32.07
2019-02-26T04:07:51.710Z,29.10
2019-02-26T04:10:28.681Z,28.57
2019-02-26T04:13:05.508Z,29.53
2019-02-26T04:15:43.207Z,28.53
2019-02-26T04:18:56.374Z,30.27
2019-02-26T04:21:23.506Z,28.23
2019-02-26T04:24:11.919Z,29.77
2019-02-26T04:27:20.189Z,29.40
2019-02-26T04:30:22.831Z,30.10
2019-02-26T04:34:02.573Z,30.93
2019-02-26T04:37:21.707Z,29.03
2019-02-26T04:40:27.232Z,29.80
2019-02-26T04:43:54.935Z,28.20
2019-02-26T04:46:39.465Z,30.37
2019-02-26T04:49:36.298Z,28.93
2019-02-26T04:52:08.561Z,30.90
2019-02-26T04:55:04.723Z,30.37
2019-02-26T04:57:39.636Z,31.77
2019-02-26T05:00:10.597Z,31.70
2019-02-26T05:02:42.987Z,30.00
2019-02-26T05:05:34.291Z,31.70
2019-02-26T05:08:04.197Z,31.47
2019-02-26T05:10:34.368Z,31.00
2019-02-26T05:13:09.711Z,31.03
2019-02-26T05:15:38.307Z,30.90
2019-02-26T05:18:12.898Z,29.47
2019-02-26T05:20:47.940Z,31.13
2019-02-26T05:23:14.235Z,32.17
2019-02-26T05:25:46.913Z,31.00
2019-02-26T05:28:40.940Z,31.73
2019-02-26T05:33:57.725Z,32.23
2019-02-26T05:37:02.327Z,33.97
2019-02-26T05:39:51.659Z,32.47
2019-02-26T05:42:19.929Z,32.53
2019-02-26T05:44:48.970Z,32.27
2019-02-26T05:47:31.673Z,32.57
2019-02-26T05:50:06.928Z,32.97
2019-02-26T05:52:35.878Z,33.80
2019-02-26T05:55:09.891Z,32.73
2019-02-26T06:00:22.696Z,33.87
2019-02-26T06:02:58.856Z,34.00
2019-02-26T06:05:41.084Z,34.20
2019-02-26T06:08:07.632Z,33.10
2019-02-26T06:10:38.217Z,34.20
2019-02-26T06:13:10.697Z,32.90
2019-02-26T06:15:47.668Z,32.37
2019-02-26T06:18:41.174Z,32.13
2019-02-26T06:21:08.482Z,31.93
2019-02-26T06:23:47.919Z,33.50
2019-02-26T06:26:20.204Z,32.70
2019-02-26T06:28:54.919Z,32.13
2019-02-26T06:31:28.928Z,32.03
2019-02-26T06:34:01.509Z,30.83
2019-02-26T06:36:30.446Z,31.33
2019-02-26T06:39:01.317Z,32.70
2019-02-26T06:41:30.059Z,29.27
2019-02-26T06:43:58.941Z,32.97
2019-02-26T06:46:29.393Z,30.53
2019-02-26T06:48:59.796Z,30.70
2019-02-26T06:51:32.673Z,30.60
2019-02-26T06:54:07.630Z,30.37
2019-02-26T06:56:43.257Z,30.57
2019-02-26T06:59:12.100Z,30.37
2019-02-26T07:01:42.020Z,29.60
2019-02-26T07:04:12.905Z,29.63
2019-02-26T07:07:04.309Z,29.53
2019-02-26T07:09:36.829Z,29.50
2019-02-26T07:12:05.786Z,28.57
2019-02-26T07:18:34.748Z,28.03
2019-02-26T07:21:06.741Z,28.37
2019-02-26T07:23:38.083Z,28.97
2019-02-26T07:26:20.814Z,27.87
2019-02-26T07:28:51.062Z,27.90
2019-02-26T07:31:20.428Z,28.70
2019-02-26T07:33:51.124Z,27.73
2019-02-26T07:36:21.167Z,28.33
2019-02-26T07:41:29.848Z,28.27
2019-02-26T07:43:59.906Z,28.90
2019-02-26T07:46:35.445Z,27.93
2019-02-26T07:49:25.173Z,27.93
2019-02-26T07:51:59.802Z,28.43
2019-02-26T07:54:28.665Z,29.47
2019-02-26T07:57:17.968Z,30.97
2019-02-26T08:00:06.979Z,31.07
2019-02-26T08:02:37.604Z,30.73
2019-02-26T08:05:07.448Z,29.97
2019-02-26T08:07:36.730Z,30.60
2019-02-26T08:10:09.966Z,31.07
2019-02-26T08:12:59.207Z,31.43
2019-02-26T08:15:46.020Z,32.83
2019-02-26T08:18:23.144Z,32.97
2019-02-26T08:20:54.637Z,33.93
2019-02-26T08:23:26.251Z,34.70
2019-02-26T08:25:56.959Z,34.53
2019-02-26T08:46:14.104Z,37.60
2019-02-26T08:48:50.785Z,37.10
2019-02-26T08:51:37.396Z,38.87
2019-02-26T08:54:07.946Z,37.93
2019-02-26T08:56:52.129Z,39.30
2019-02-26T08:59:26.453Z,39.87
2019-02-26T09:02:05.662Z,40.93
2019-02-26T09:04:40.196Z,40.90
2019-02-26T09:07:09.042Z,40.97
2019-02-26T09:09:47.540Z,42.13
2019-02-26T09:12:17.524Z,42.57
2019-02-26T09:14:48.157Z,42.80
2019-02-26T09:17:20.923Z,42.77
2019-02-26T09:22:53.715Z,42.23
2019-02-26T09:25:25.944Z,42.40
2019-02-26T09:27:56.388Z,42.13
2019-02-26T09:30:31.598Z,42.40
2019-02-26T09:33:03.310Z,41.80
2019-02-26T09:35:37.836Z,40.70
2019-02-26T09:38:07.219Z,39.77
2019-02-26T09:40:36.131Z,40.40
2019-02-26T09:43:06.272Z,39.20
2019-02-26T09:45:36.795Z,37.87
2019-02-26T09:48:16.957Z,35.60
2019-02-26T09:51:17.169Z,34.30
2019-02-26T09:54:10.309Z,34.33
2019-02-26T09:56:40.734Z,32.43
2019-02-26T09:59:34.006Z,32.63
2019-02-26T10:02:05.579Z,33.13
2019-02-26T10:04:34.331Z,32.77
2019-02-26T10:07:15.140Z,30.73
2019-02-26T10:12:51.150Z,28.83
2019-02-26T10:15:19.628Z,30.97
2019-02-26T10:18:03.494Z,28.37
2019-02-26T10:20:31.902Z,28.90
2019-02-26T10:23:09.443Z,28.00
2019-02-26T10:25:38.916Z,28.67
2019-02-26T10:28:11.028Z,27.70
2019-02-26T10:30:41.584Z,26.23
2019-02-26T10:33:18.533Z,25.00
2019-02-26T10:35:50.012Z,25.93
2019-02-26T10:38:29.606Z,22.97
2019-02-26T10:41:21.295Z,22.37
2019-02-26T10:43:58.001Z,22.17
2019-02-26T10:46:27.184Z,21.70
2019-02-26T10:52:03.125Z,20.90
2019-02-26T10:54:40.536Z,20.57
2019-02-26T10:57:14.158Z,19.10
2019-02-26T11:00:02.600Z,19.70
2019-02-26T11:02:54.383Z,19.23
2019-02-26T11:05:27.149Z,18.70
2019-02-26T11:07:59.782Z,19.00
2019-02-26T11:10:30.759Z,16.93
2019-02-26T11:12:59.936Z,17.30
2019-02-26T11:15:35.404Z,17.30
2019-02-26T11:21:25.145Z,17.13
2019-02-26T11:23:54.588Z,16.37
2019-02-26T11:26:25.584Z,15.97
2019-02-26T11:28:54.828Z,15.27
2019-02-26T11:31:47.699Z,15.30
2019-02-26T11:34:17.253Z,15.03
2019-02-26T11:36:46.125Z,15.60
2019-02-26T11:39:16.437Z,14.63
2019-02-26T11:41:56.256Z,14.03
2019-02-26T11:47:23.270Z,14.60
2019-02-26T11:49:53.944Z,13.37
2019-02-26T11:52:55.051Z,13.03
2019-02-26T11:55:29.289Z,13.70
2019-02-26T11:58:22.321Z,12.07
2019-02-26T12:00:57.593Z,12.67
2019-02-26T12:03:38.910Z,12.20
2019-02-26T12:06:10.002Z,11.83
2019-02-26T12:08:44.885Z,11.70
2019-02-26T12:11:27.367Z,11.97
2019-02-26T12:13:56.262Z,11.73
2019-02-26T12:16:28.561Z,10.50
2019-02-26T12:18:58.881Z,10.93
2019-02-26T12:21:32.749Z,10.73
2019-02-26T12:24:12.918Z,10.87
2019-02-26T12:26:48.104Z,10.43
2019-02-26T12:32:22.328Z,10.90
2019-02-26T12:34:56.886Z,10.30
2019-02-26T12:37:37.045Z,9.80
2019-02-26T12:40:12.989Z,9.57
2019-02-26T12:42:41.298Z,9.97
2019-02-26T12:48:43.892Z,8.70
2019-02-26T12:51:26.313Z,9.50
2019-02-26T12:53:55.443Z,8.73
2019-02-26T12:56:29.878Z,9.07
2019-02-26T13:01:48.547Z,8.87
2019-02-26T13:04:21.553Z,8.63
2019-02-26T13:07:13.050Z,8.77
2019-02-26T13:09:54.226Z,8.27
2019-02-26T13:12:58.955Z,8.83
2019-02-26T13:15:23.807Z,8.10
2019-02-26T13:18:23.915Z,8.13
2019-02-26T13:20:59.466Z,7.87
2019-02-26T13:23:26.669Z,8.30
2019-02-26T13:25:57.351Z,7.83
2019-02-26T13:28:34.250Z,7.87
2019-02-26T13:31:22.776Z,8.90
2019-02-26T13:33:52.000Z,7.70
2019-02-26T13:36:21.441Z,8.10
2019-02-26T13:38:52.977Z,7.90
2019-02-26T13:43:52.789Z,7.63
2019-02-26T13:46:21.723Z,7.67
2019-02-26T13:48:50.969Z,7.60
2019-02-26T13:51:20.014Z,7.73
2019-02-26T13:53:49.196Z,7.73
2019-02-26T13:56:18.180Z,7.83
2019-02-26T13:58:59.673Z,7.77
2019-02-26T14:01:32.391Z,7.10
2019-02-26T14:04:01.633Z,7.60
2019-02-26T14:06:44.066Z,6.87
2019-02-26T14:11:50.389Z,6.77
2019-02-26T14:14:21.111Z,7.53
2019-02-26T14:16:49.958Z,6.93
2019-02-26T14:19:18.859Z,7.23
2019-02-26T14:21:47.890Z,7.60
2019-02-26T14:24:24.374Z,7.23
2019-02-26T14:26:57.817Z,7.23
2019-02-26T14:29:27.178Z,7.00
2019-02-26T14:31:59.432Z,7.07
2019-02-26T14:34:28.365Z,6.23
2019-02-26T14:37:01.098Z,6.87
2019-02-26T14:39:37.315Z,6.47
2019-02-26T14:42:24.169Z,7.33
2019-02-26T14:47:43.025Z,6.43
2019-02-26T14:50:14.215Z,6.30
2019-02-26T14:52:43.324Z,6.07
2019-02-26T14:58:05.534Z,5.70
2019-02-26T15:00:34.801Z,5.93
2019-02-26T15:03:11.482Z,6.33
2019-02-26T15:05:40.487Z,6.50
2019-02-26T15:08:09.690Z,5.87
2019-02-26T15:10:39.239Z,5.63
2019-02-26T15:13:08.045Z,5.80
2019-02-26T15:15:48.931Z,6.20
2019-02-26T15:18:10.304Z,5.90
2019-02-26T15:20:39.140Z,6.13
2019-02-26T15:23:07.988Z,5.70
2019-02-26T15:25:41.419Z,5.60
2019-02-26T15:28:29.410Z,5.87
2019-02-26T15:31:06.299Z,6.00
2019-02-26T15:33:35.409Z,5.37
2019-02-26T15:36:05.927Z,5.53
2019-02-26T15:38:53.526Z,5.50
2019-02-26T15:41:26.760Z,5.30
2019-02-26T15:44:33.100Z,5.50
2019-02-26T15:47:09.210Z,5.50
2019-02-26T15:49:41.246Z,5.23
2019-02-26T15:52:22.279Z,5.67
2019-02-26T15:55:10.162Z,4.90
2019-02-26T15:57:39.252Z,5.47
2019-02-26T16:00:11.412Z,5.13
2019-02-26T16:02:42.326Z,4.87
2019-02-26T16:05:35.672Z,4.40
2019-02-26T16:08:10.711Z,5.03
2019-02-26T16:10:39.542Z,5.17
2019-02-26T16:13:26.148Z,4.77
2019-02-26T16:15:59.500Z,4.87
2019-02-26T16:18:29.619Z,5.33
2019-02-26T16:21:21.943Z,5.17
2019-02-26T16:24:13.764Z,4.67
2019-02-26T16:26:47.052Z,4.60
2019-02-26T16:29:35.387Z,4.50
2019-02-26T16:34:54.325Z,4.70
2019-02-26T16:40:24.251Z,4.77
2019-02-26T16:43:08.002Z,4.70
2019-02-26T16:45:37.176Z,4.20
2019-02-26T16:48:15.359Z,4.50
2019-02-26T16:50:46.129Z,4.67
2019-02-26T16:53:15.367Z,4.70
2019-02-26T16:56:04.780Z,5.07
2019-02-26T16:58:35.580Z,4.67
2019-02-26T17:01:25.338Z,4.80
2019-02-26T17:03:54.135Z,4.77
2019-02-26T17:06:30.647Z,5.00
2019-02-26T17:08:59.753Z,5.00
2019-02-26T17:11:30.942Z,4.87
2019-02-26T17:14:00.565Z,4.67
2019-02-26T17:16:31.900Z,4.90
2019-02-26T17:19:00.428Z,4.90
2019-02-26T17:24:21.517Z,5.10
2019-02-26T17:27:38.955Z,5.30
2019-02-26T17:30:24.623Z,5.10
2019-02-26T17:32:54.025Z,5.47
2019-02-26T17:35:29.493Z,4.60
2019-02-26T17:37:57.862Z,4.87
2019-02-26T17:40:28.754Z,5.07
2019-02-26T17:42:58.073Z,5.13
2019-02-26T17:45:31.402Z,5.50
2019-02-26T17:48:09.503Z,5.40
2019-02-26T17:56:11.635Z,5.60
2019-02-26T17:58:41.685Z,5.07
2019-02-26T18:01:12.175Z,5.07
2019-02-26T18:03:44.590Z,5.40
2019-02-26T18:06:13.135Z,5.73
2019-02-26T18:08:49.369Z,5.23
2019-02-26T18:11:20.878Z,4.63
2019-02-26T18:13:49.847Z,5.60
2019-02-26T18:22:21.819Z,5.53
2019-02-26T18:24:58.088Z,9.23
2019-02-26T18:27:27.714Z,18.13
2019-02-26T18:30:02.640Z,29.73
2019-02-26T18:32:49.799Z,30.60
2019-02-26T18:35:03.932Z,37.97
2019-02-26T18:37:59.201Z,44.97
2019-02-26T18:40:39.848Z,28.90
2019-02-26T18:43:14.024Z,30.90
2019-02-26T18:48:30.325Z,27.67
2019-02-26T18:51:02.039Z,25.83
2019-02-26T18:53:49.401Z,19.67
2019-02-26T18:56:22.828Z,20.00
2019-02-26T18:58:53.782Z,18.97
2019-02-26T19:01:36.956Z,18.83
2019-02-26T19:04:07.548Z,17.63
2019-02-26T19:06:37.525Z,17.30
2019-02-26T19:09:39.837Z,16.20
2019-02-26T19:12:21.100Z,13.80
2019-02-26T19:14:45.153Z,15.00
2019-02-26T19:17:16.728Z,15.23
2019-02-26T19:19:45.723Z,14.10
2019-02-26T19:22:17.428Z,12.77
2019-02-26T19:24:46.373Z,12.17
2019-02-26T19:27:19.399Z,12.97
2019-02-26T19:29:48.253Z,11.80
2019-02-26T19:32:20.152Z,11.40
2019-02-26T19:34:53.596Z,11.07
2019-02-26T19:37:37.928Z,10.40
2019-02-26T19:40:08.585Z,10.90
2019-02-26T19:45:26.794Z,10.10
2019-02-26T19:47:56.546Z,9.63
2019-02-26T19:50:30.414Z,9.63
2019-02-26T19:53:02.192Z,9.30
2019-02-26T19:55:42.590Z,9.30
2019-02-26T19:58:18.331Z,9.10
2019-02-26T20:00:52.905Z,9.13
2019-02-26T20:03:24.138Z,8.87
2019-02-26T20:06:00.199Z,8.13
2019-02-26T20:08:54.494Z,8.50
2019-02-26T20:15:08.247Z,8.23
2019-02-26T20:17:48.974Z,7.57
2019-02-26T20:23:21.777Z,8.73
2019-02-26T20:25:53.617Z,8.70
2019-02-26T20:28:23.463Z,8.53
2019-02-26T20:31:15.184Z,9.03
2019-02-26T20:34:08.137Z,8.63
2019-02-26T20:36:45.799Z,8.83
2019-02-26T20:39:16.994Z,9.07
2019-02-26T20:41:55.529Z,8.40
2019-02-26T20:44:22.512Z,8.60
2019-02-26T20:46:57.995Z,8.90
2019-02-26T20:49:29.443Z,8.77
2019-02-26T20:52:10.438Z,9.10
2019-02-26T20:54:32.799Z,8.93
2019-02-26T20:57:04.027Z,8.97
2019-02-26T20:59:34.319Z,8.47
2019-02-26T21:02:07.879Z,8.30
2019-02-26T21:04:36.989Z,8.03
2019-02-26T21:07:06.097Z,8.57
2019-02-26T21:09:37.805Z,8.73
2019-02-26T21:14:47.747Z,8.20
2019-02-26T21:17:16.890Z,7.73
2019-02-26T21:19:47.306Z,8.07
2019-02-26T21:22:16.210Z,8.00
2019-02-26T21:27:43.705Z,7.60
2019-02-26T21:30:25.047Z,7.93
2019-02-26T21:33:01.240Z,7.63
2019-02-26T21:35:48.148Z,8.17
2019-02-26T21:38:17.127Z,6.70
2019-02-26T21:40:51.919Z,7.53
2019-02-26T21:43:23.010Z,7.50
2019-02-26T21:45:51.978Z,7.10
2019-02-26T21:48:22.340Z,7.47
2019-02-26T21:51:21.258Z,7.50
2019-02-26T21:54:03.462Z,7.40
2019-02-26T21:56:48.664Z,6.93
2019-02-26T21:59:26.881Z,7.07
2019-02-26T22:01:58.402Z,7.07
2019-02-26T22:04:31.698Z,7.20
2019-02-26T22:06:59.012Z,7.67
2019-02-26T22:09:30.180Z,6.83
2019-02-26T22:12:03.047Z,6.70
2019-02-26T22:14:34.003Z,7.27
2019-02-26T22:19:45.833Z,7.70
2019-02-26T22:22:16.611Z,7.40
2019-02-26T22:24:46.155Z,8.20
2019-02-26T22:27:15.181Z,8.13
2019-02-26T22:29:47.938Z,7.77
2019-02-26T22:32:16.935Z,8.40
2019-02-26T22:34:47.948Z,8.20
2019-02-26T22:37:20.343Z,8.23
2019-02-26T22:39:53.600Z,8.20
2019-02-26T22:42:26.975Z,8.50
2019-02-26T22:45:02.485Z,9.10
2019-02-26T22:47:34.457Z,9.10
2019-02-26T22:50:08.095Z,10.00
2019-02-26T22:52:39.540Z,9.20
2019-02-26T22:55:15.974Z,9.23
2019-02-26T22:57:46.811Z,10.73
2019-02-26T23:01:00.589Z,10.33
2019-02-26T23:03:36.657Z,10.07
2019-02-26T23:06:05.666Z,10.20
2019-02-26T23:08:36.257Z,10.90
2019-02-26T23:11:06.193Z,11.13
2019-02-26T23:13:39.568Z,10.87
2019-02-26T23:16:12.033Z,10.80
2019-02-26T23:18:41.209Z,11.37
2019-02-26T23:21:16.282Z,12.00
2019-02-26T23:26:41.686Z,11.57
2019-02-26T23:29:18.495Z,11.47
2019-02-26T23:31:54.981Z,11.97
2019-02-26T23:34:29.026Z,11.13
2019-02-26T23:37:01.494Z,11.37
2019-02-26T23:39:31.312Z,10.77
2019-02-26T23:42:06.712Z,12.03
2019-02-26T23:44:56.201Z,11.87
2019-02-26T23:47:25.382Z,11.30
2019-02-26T23:49:55.227Z,11.00
2019-02-26T23:52:34.562Z,11.87
2019-02-26T23:55:13.380Z,12.67
2019-02-26T23:57:41.919Z,13.73
